sensor_id;sensor_type;location;lat;lon;timestamp;pressure;altitude;pressure_sealevel;temperature
34023;BMP280;20673;48.980;8.138;2023-05-29T00:01:28;100090.61;;;13.79
34023;BMP280;20673;48.980;8.138;2023-05-29T00:03:55;100087.56;;;13.80
34023;BMP280;20673;48.980;8.138;2023-05-29T00:06:21;100092.40;;;13.77
34023;BMP280;20673;48.980;8.138;2023-05-29T00:08:47;100091.65;;;13.79
34023;BMP280;20673;48.980;8.138;2023-05-29T00:11:14;100100.67;;;13.75
34023;BMP280;20673;48.980;8.138;2023-05-29T00:13:40;100096.91;;;13.68
34023;BMP280;20673;48.980;8.138;2023-05-29T00:16:07;100099.37;;;13.61
34023;BMP280;20673;48.980;8.138;2023-05-29T00:18:36;100094.08;;;13.62
34023;BMP280;20673;48.980;8.138;2023-05-29T00:21:02;100095.27;;;13.58
34023;BMP280;20673;48.980;8.138;2023-05-29T00:23:29;100098.36;;;13.52
34023;BMP280;20673;48.980;8.138;2023-05-29T00:25:55;100097.98;;;13.45
34023;BMP280;20673;48.980;8.138;2023-05-29T00:28:21;100092.92;;;13.43
34023;BMP280;20673;48.980;8.138;2023-05-29T00:30:47;100088.08;;;13.41
34023;BMP280;20673;48.980;8.138;2023-05-29T00:33:13;100089.24;;;13.35
34023;BMP280;20673;48.980;8.138;2023-05-29T00:35:40;100091.70;;;13.31
34023;BMP280;20673;48.980;8.138;2023-05-29T00:38:06;100087.84;;;13.30
34023;BMP280;20673;48.980;8.138;2023-05-29T00:40:35;100085.04;;;13.22
34023;BMP280;20673;48.980;8.138;2023-05-29T00:43:02;100080.98;;;13.17
34023;BMP280;20673;48.980;8.138;2023-05-29T00:45:28;100088.22;;;13.06
34023;BMP280;20673;48.980;8.138;2023-05-29T00:47:57;100086.87;;;13.06
34023;BMP280;20673;48.980;8.138;2023-05-29T00:50:24;100087.75;;;13.05
34023;BMP280;20673;48.980;8.138;2023-05-29T00:52:50;100088.18;;;12.96
34023;BMP280;20673;48.980;8.138;2023-05-29T00:55:17;100094.81;;;12.86
34023;BMP280;20673;48.980;8.138;2023-05-29T00:57:43;100095.26;;;12.85
34023;BMP280;20673;48.980;8.138;2023-05-29T01:00:12;100092.64;;;12.85
34023;BMP280;20673;48.980;8.138;2023-05-29T01:02:41;100092.91;;;12.79
34023;BMP280;20673;48.980;8.138;2023-05-29T01:05:14;100095.15;;;12.76
34023;BMP280;20673;48.980;8.138;2023-05-29T01:07:42;100095.06;;;12.75
34023;BMP280;20673;48.980;8.138;2023-05-29T01:10:10;100095.23;;;12.77
34023;BMP280;20673;48.980;8.138;2023-05-29T01:13:03;100096.79;;;12.80
34023;BMP280;20673;48.980;8.138;2023-05-29T01:15:52;100097.35;;;12.82
34023;BMP280;20673;48.980;8.138;2023-05-29T01:18:51;100096.02;;;12.85
34023;BMP280;20673;48.980;8.138;2023-05-29T01:24:38;100099.08;;;13.02
34023;BMP280;20673;48.980;8.138;2023-05-29T01:27:07;100098.04;;;13.05
34023;BMP280;20673;48.980;8.138;2023-05-29T01:29:39;100098.95;;;13.12
34023;BMP280;20673;48.980;8.138;2023-05-29T01:32:07;100095.25;;;13.20
34023;BMP280;20673;48.980;8.138;2023-05-29T01:34:33;100091.55;;;13.22
34023;BMP280;20673;48.980;8.138;2023-05-29T01:36:59;100087.42;;;13.24
34023;BMP280;20673;48.980;8.138;2023-05-29T01:39:26;100087.18;;;13.33
34023;BMP280;20673;48.980;8.138;2023-05-29T01:41:54;100089.24;;;13.40
34023;BMP280;20673;48.980;8.138;2023-05-29T01:44:22;100083.58;;;13.44
34023;BMP280;20673;48.980;8.138;2023-05-29T01:46:50;100086.12;;;13.47
34023;BMP280;20673;48.980;8.138;2023-05-29T01:49:17;100079.12;;;13.55
34023;BMP280;20673;48.980;8.138;2023-05-29T01:51:44;100082.79;;;13.63
34023;BMP280;20673;48.980;8.138;2023-05-29T01:54:10;100084.56;;;13.75
34023;BMP280;20673;48.980;8.138;2023-05-29T01:56:37;100088.57;;;13.80
34023;BMP280;20673;48.980;8.138;2023-05-29T01:59:05;100093.73;;;13.90
34023;BMP280;20673;48.980;8.138;2023-05-29T02:01:32;100093.68;;;13.98
34023;BMP280;20673;48.980;8.138;2023-05-29T02:03:58;100087.04;;;14.03
34023;BMP280;20673;48.980;8.138;2023-05-29T02:06:24;100085.74;;;14.04
34023;BMP280;20673;48.980;8.138;2023-05-29T02:08:50;100078.42;;;14.09
34023;BMP280;20673;48.980;8.138;2023-05-29T02:11:17;100084.68;;;14.06
34023;BMP280;20673;48.980;8.138;2023-05-29T02:13:44;100080.09;;;14.11
34023;BMP280;20673;48.980;8.138;2023-05-29T02:16:10;100082.97;;;14.13
34023;BMP280;20673;48.980;8.138;2023-05-29T02:18:36;100083.31;;;14.13
34023;BMP280;20673;48.980;8.138;2023-05-29T02:21:02;100081.89;;;14.12
34023;BMP280;20673;48.980;8.138;2023-05-29T02:23:28;100083.43;;;14.11
34023;BMP280;20673;48.980;8.138;2023-05-29T02:25:55;100082.18;;;14.10
34023;BMP280;20673;48.980;8.138;2023-05-29T02:28:21;100088.83;;;14.11
34023;BMP280;20673;48.980;8.138;2023-05-29T02:30:47;100089.71;;;14.06
34023;BMP280;20673;48.980;8.138;2023-05-29T02:33:13;100090.12;;;14.03
34023;BMP280;20673;48.980;8.138;2023-05-29T02:35:39;100087.00;;;13.98
34023;BMP280;20673;48.980;8.138;2023-05-29T02:38:05;100092.76;;;13.96
34023;BMP280;20673;48.980;8.138;2023-05-29T02:40:31;100090.76;;;13.92
34023;BMP280;20673;48.980;8.138;2023-05-29T02:42:57;100092.11;;;13.88
34023;BMP280;20673;48.980;8.138;2023-05-29T02:45:24;100086.81;;;13.88
34023;BMP280;20673;48.980;8.138;2023-05-29T02:47:50;100088.48;;;13.84
34023;BMP280;20673;48.980;8.138;2023-05-29T02:50:16;100085.01;;;13.83
34023;BMP280;20673;48.980;8.138;2023-05-29T02:52:42;100081.67;;;13.80
34023;BMP280;20673;48.980;8.138;2023-05-29T02:55:09;100076.90;;;13.79
34023;BMP280;20673;48.980;8.138;2023-05-29T02:57:35;100075.74;;;13.79
34023;BMP280;20673;48.980;8.138;2023-05-29T03:00:01;100076.28;;;13.77
34023;BMP280;20673;48.980;8.138;2023-05-29T03:02:29;100076.37;;;13.76
34023;BMP280;20673;48.980;8.138;2023-05-29T03:04:55;100078.46;;;13.77
34023;BMP280;20673;48.980;8.138;2023-05-29T03:07:21;100079.88;;;13.78
34023;BMP280;20673;48.980;8.138;2023-05-29T03:09:47;100081.17;;;13.81
34023;BMP280;20673;48.980;8.138;2023-05-29T03:12:14;100082.50;;;13.83
34023;BMP280;20673;48.980;8.138;2023-05-29T03:14:40;100083.50;;;13.91
34023;BMP280;20673;48.980;8.138;2023-05-29T03:17:06;100086.13;;;13.90
34023;BMP280;20673;48.980;8.138;2023-05-29T03:19:35;100086.04;;;13.89
34023;BMP280;20673;48.980;8.138;2023-05-29T03:22:01;100087.25;;;13.90
34023;BMP280;20673;48.980;8.138;2023-05-29T03:24:27;100089.86;;;13.86
34023;BMP280;20673;48.980;8.138;2023-05-29T03:26:53;100090.02;;;13.87
34023;BMP280;20673;48.980;8.138;2023-05-29T03:29:19;100087.35;;;13.85
34023;BMP280;20673;48.980;8.138;2023-05-29T03:31:45;100088.68;;;13.84
34023;BMP280;20673;48.980;8.138;2023-05-29T03:34:11;100088.39;;;13.81
34023;BMP280;20673;48.980;8.138;2023-05-29T03:36:39;100089.53;;;13.81
34023;BMP280;20673;48.980;8.138;2023-05-29T03:39:05;100089.73;;;13.80
34023;BMP280;20673;48.980;8.138;2023-05-29T03:41:32;100095.28;;;13.76
34023;BMP280;20673;48.980;8.138;2023-05-29T03:43:58;100097.83;;;13.70
34023;BMP280;20673;48.980;8.138;2023-05-29T03:46:24;100101.13;;;13.64
34023;BMP280;20673;48.980;8.138;2023-05-29T03:48:50;100103.92;;;13.64
34023;BMP280;20673;48.980;8.138;2023-05-29T03:51:16;100105.47;;;13.57
34023;BMP280;20673;48.980;8.138;2023-05-29T03:53:42;100102.91;;;13.53
34023;BMP280;20673;48.980;8.138;2023-05-29T03:56:08;100105.54;;;13.48
34023;BMP280;20673;48.980;8.138;2023-05-29T03:58:34;100109.24;;;13.41
34023;BMP280;20673;48.980;8.138;2023-05-29T04:01:02;100108.11;;;13.42
34023;BMP280;20673;48.980;8.138;2023-05-29T04:03:29;100111.58;;;13.39
34023;BMP280;20673;48.980;8.138;2023-05-29T04:05:56;100116.00;;;13.40
34023;BMP280;20673;48.980;8.138;2023-05-29T04:08:22;100118.79;;;13.43
34023;BMP280;20673;48.980;8.138;2023-05-29T04:10:48;100120.43;;;13.49
34023;BMP280;20673;48.980;8.138;2023-05-29T04:13:15;100120.48;;;13.53
34023;BMP280;20673;48.980;8.138;2023-05-29T04:15:41;100119.48;;;13.60
34023;BMP280;20673;48.980;8.138;2023-05-29T04:18:08;100124.34;;;13.66
34023;BMP280;20673;48.980;8.138;2023-05-29T04:20:34;100126.26;;;13.72
34023;BMP280;20673;48.980;8.138;2023-05-29T04:23:00;100131.12;;;13.79
34023;BMP280;20673;48.980;8.138;2023-05-29T04:25:26;100134.42;;;13.84
34023;BMP280;20673;48.980;8.138;2023-05-29T04:27:52;100136.70;;;13.90
34023;BMP280;20673;48.980;8.138;2023-05-29T04:30:18;100145.32;;;13.97
34023;BMP280;20673;48.980;8.138;2023-05-29T04:32:44;100146.07;;;14.02
34023;BMP280;20673;48.980;8.138;2023-05-29T04:35:12;100146.11;;;14.11
34023;BMP280;20673;48.980;8.138;2023-05-29T04:37:38;100140.50;;;14.16
34023;BMP280;20673;48.980;8.138;2023-05-29T04:40:07;100142.75;;;14.22
34023;BMP280;20673;48.980;8.138;2023-05-29T04:42:37;100147.67;;;14.29
34023;BMP280;20673;48.980;8.138;2023-05-29T04:45:04;100149.47;;;14.39
34023;BMP280;20673;48.980;8.138;2023-05-29T04:47:31;100155.29;;;14.47
34023;BMP280;20673;48.980;8.138;2023-05-29T04:50:02;100155.87;;;14.55
34023;BMP280;20673;48.980;8.138;2023-05-29T04:52:28;100162.62;;;14.63
34023;BMP280;20673;48.980;8.138;2023-05-29T04:54:56;100166.37;;;14.70
34023;BMP280;20673;48.980;8.138;2023-05-29T04:57:22;100164.59;;;14.79
34023;BMP280;20673;48.980;8.138;2023-05-29T04:59:48;100170.89;;;14.87
34023;BMP280;20673;48.980;8.138;2023-05-29T05:02:15;100167.29;;;14.96
34023;BMP280;20673;48.980;8.138;2023-05-29T05:04:41;100176.17;;;15.05
34023;BMP280;20673;48.980;8.138;2023-05-29T05:07:09;100171.35;;;15.15
34023;BMP280;20673;48.980;8.138;2023-05-29T05:09:35;100173.65;;;15.24
34023;BMP280;20673;48.980;8.138;2023-05-29T05:12:01;100174.79;;;15.31
34023;BMP280;20673;48.980;8.138;2023-05-29T05:14:27;100175.79;;;15.40
34023;BMP280;20673;48.980;8.138;2023-05-29T05:16:53;100176.75;;;15.49
34023;BMP280;20673;48.980;8.138;2023-05-29T05:19:20;100172.23;;;15.56
34023;BMP280;20673;48.980;8.138;2023-05-29T05:21:46;100175.86;;;15.64
34023;BMP280;20673;48.980;8.138;2023-05-29T05:24:12;100170.33;;;15.72
34023;BMP280;20673;48.980;8.138;2023-05-29T05:26:38;100176.06;;;15.80
34023;BMP280;20673;48.980;8.138;2023-05-29T05:29:04;100177.29;;;15.89
34023;BMP280;20673;48.980;8.138;2023-05-29T05:31:31;100186.70;;;15.97
34023;BMP280;20673;48.980;8.138;2023-05-29T05:33:57;100191.75;;;16.05
34023;BMP280;20673;48.980;8.138;2023-05-29T05:36:23;100186.91;;;16.12
34023;BMP280;20673;48.980;8.138;2023-05-29T05:38:49;100190.70;;;16.21
34023;BMP280;20673;48.980;8.138;2023-05-29T05:41:15;100191.50;;;16.31
34023;BMP280;20673;48.980;8.138;2023-05-29T05:43:41;100191.43;;;16.42
34023;BMP280;20673;48.980;8.138;2023-05-29T05:46:07;100192.06;;;16.48
34023;BMP280;20673;48.980;8.138;2023-05-29T05:48:33;100195.47;;;16.60
34023;BMP280;20673;48.980;8.138;2023-05-29T05:50:59;100199.84;;;16.67
34023;BMP280;20673;48.980;8.138;2023-05-29T05:53:26;100204.11;;;16.73
34023;BMP280;20673;48.980;8.138;2023-05-29T05:55:52;100203.18;;;16.80
34023;BMP280;20673;48.980;8.138;2023-05-29T05:58:18;100206.28;;;16.93
34023;BMP280;20673;48.980;8.138;2023-05-29T06:00:44;100206.33;;;17.00
34023;BMP280;20673;48.980;8.138;2023-05-29T06:03:10;100208.06;;;17.09
34023;BMP280;20673;48.980;8.138;2023-05-29T06:05:37;100209.48;;;17.16
34023;BMP280;20673;48.980;8.138;2023-05-29T06:08:05;100216.51;;;17.25
34023;BMP280;20673;48.980;8.138;2023-05-29T06:10:32;100217.53;;;17.31
34023;BMP280;20673;48.980;8.138;2023-05-29T06:12:58;100218.48;;;17.43
34023;BMP280;20673;48.980;8.138;2023-05-29T06:15:24;100217.00;;;17.50
34023;BMP280;20673;48.980;8.138;2023-05-29T06:17:50;100226.04;;;17.62
34023;BMP280;20673;48.980;8.138;2023-05-29T06:20:17;100224.18;;;17.68
34023;BMP280;20673;48.980;8.138;2023-05-29T06:22:43;100228.75;;;17.87
34023;BMP280;20673;48.980;8.138;2023-05-29T06:25:11;100229.20;;;17.93
34023;BMP280;20673;48.980;8.138;2023-05-29T06:27:37;100226.90;;;18.11
34023;BMP280;20673;48.980;8.138;2023-05-29T06:30:04;100231.53;;;18.19
34023;BMP280;20673;48.980;8.138;2023-05-29T06:32:30;100231.97;;;18.26
34023;BMP280;20673;48.980;8.138;2023-05-29T06:34:56;100232.34;;;18.21
34023;BMP280;20673;48.980;8.138;2023-05-29T06:37:22;100234.78;;;18.32
34023;BMP280;20673;48.980;8.138;2023-05-29T06:39:48;100234.93;;;18.42
34023;BMP280;20673;48.980;8.138;2023-05-29T06:42:15;100243.25;;;18.53
34023;BMP280;20673;48.980;8.138;2023-05-29T06:44:41;100245.12;;;18.54
34023;BMP280;20673;48.980;8.138;2023-05-29T06:47:07;100238.95;;;18.73
34023;BMP280;20673;48.980;8.138;2023-05-29T06:49:33;100234.42;;;18.83
34023;BMP280;20673;48.980;8.138;2023-05-29T06:51:59;100233.86;;;18.95
34023;BMP280;20673;48.980;8.138;2023-05-29T06:54:26;100235.20;;;19.08
34023;BMP280;20673;48.980;8.138;2023-05-29T06:56:52;100231.29;;;19.25
34023;BMP280;20673;48.980;8.138;2023-05-29T06:59:20;100227.50;;;19.25
34023;BMP280;20673;48.980;8.138;2023-05-29T07:01:46;100233.11;;;19.37
34023;BMP280;20673;48.980;8.138;2023-05-29T07:04:13;100234.65;;;19.53
34023;BMP280;20673;48.980;8.138;2023-05-29T07:06:39;100238.50;;;19.66
34023;BMP280;20673;48.980;8.138;2023-05-29T07:09:05;100239.65;;;19.76
34023;BMP280;20673;48.980;8.138;2023-05-29T07:11:31;100246.25;;;19.78
34023;BMP280;20673;48.980;8.138;2023-05-29T07:13:57;100250.36;;;19.87
34023;BMP280;20673;48.980;8.138;2023-05-29T07:16:23;100250.04;;;20.00
34023;BMP280;20673;48.980;8.138;2023-05-29T07:18:49;100249.59;;;20.06
34023;BMP280;20673;48.980;8.138;2023-05-29T07:21:17;100245.50;;;20.34
34023;BMP280;20673;48.980;8.138;2023-05-29T07:23:44;100242.25;;;20.37
34023;BMP280;20673;48.980;8.138;2023-05-29T07:26:10;100245.97;;;20.48
34023;BMP280;20673;48.980;8.138;2023-05-29T07:28:37;100244.58;;;20.57
34023;BMP280;20673;48.980;8.138;2023-05-29T07:31:03;100247.23;;;20.55
34023;BMP280;20673;48.980;8.138;2023-05-29T07:33:29;100242.00;;;20.55
34023;BMP280;20673;48.980;8.138;2023-05-29T07:35:55;100243.48;;;20.66
34023;BMP280;20673;48.980;8.138;2023-05-29T07:38:21;100247.34;;;20.70
34023;BMP280;20673;48.980;8.138;2023-05-29T07:40:47;100246.46;;;20.83
34023;BMP280;20673;48.980;8.138;2023-05-29T07:43:13;100245.65;;;20.91
34023;BMP280;20673;48.980;8.138;2023-05-29T07:45:39;100247.84;;;21.05
34023;BMP280;20673;48.980;8.138;2023-05-29T07:48:05;100250.54;;;21.21
34023;BMP280;20673;48.980;8.138;2023-05-29T07:50:32;100254.58;;;21.30
34023;BMP280;20673;48.980;8.138;2023-05-29T07:52:59;100253.28;;;21.33
34023;BMP280;20673;48.980;8.138;2023-05-29T07:55:26;100254.31;;;21.49
34023;BMP280;20673;48.980;8.138;2023-05-29T07:57:52;100253.42;;;21.53
34023;BMP280;20673;48.980;8.138;2023-05-29T08:00:18;100252.43;;;21.44
34023;BMP280;20673;48.980;8.138;2023-05-29T08:02:45;100254.73;;;21.75
34023;BMP280;20673;48.980;8.138;2023-05-29T08:05:12;100251.71;;;21.77
34023;BMP280;20673;48.980;8.138;2023-05-29T08:07:38;100252.95;;;21.97
34023;BMP280;20673;48.980;8.138;2023-05-29T08:10:05;100256.40;;;22.02
34023;BMP280;20673;48.980;8.138;2023-05-29T08:12:32;100260.13;;;21.97
34023;BMP280;20673;48.980;8.138;2023-05-29T08:15:00;100258.42;;;22.21
34023;BMP280;20673;48.980;8.138;2023-05-29T08:17:26;100259.78;;;22.27
34023;BMP280;20673;48.980;8.138;2023-05-29T08:19:53;100257.01;;;22.45
34023;BMP280;20673;48.980;8.138;2023-05-29T08:22:19;100252.33;;;22.32
34023;BMP280;20673;48.980;8.138;2023-05-29T08:24:46;100253.00;;;22.57
34023;BMP280;20673;48.980;8.138;2023-05-29T08:27:13;100245.37;;;22.65
34023;BMP280;20673;48.980;8.138;2023-05-29T08:29:40;100251.45;;;22.85
34023;BMP280;20673;48.980;8.138;2023-05-29T08:32:06;100249.65;;;22.88
34023;BMP280;20673;48.980;8.138;2023-05-29T08:34:32;100245.19;;;23.20
34023;BMP280;20673;48.980;8.138;2023-05-29T08:36:58;100248.32;;;23.32
34023;BMP280;20673;48.980;8.138;2023-05-29T08:39:25;100246.26;;;23.36
34023;BMP280;20673;48.980;8.138;2023-05-29T08:42:01;100248.61;;;23.54
34023;BMP280;20673;48.980;8.138;2023-05-29T08:44:30;100253.40;;;23.68
34023;BMP280;20673;48.980;8.138;2023-05-29T08:47:01;100249.65;;;23.79
34023;BMP280;20673;48.980;8.138;2023-05-29T08:49:41;100251.36;;;23.97
34023;BMP280;20673;48.980;8.138;2023-05-29T08:52:23;100254.01;;;24.12
34023;BMP280;20673;48.980;8.138;2023-05-29T08:54:54;100256.74;;;24.31
34023;BMP280;20673;48.980;8.138;2023-05-29T08:57:21;100258.00;;;24.56
34023;BMP280;20673;48.980;8.138;2023-05-29T08:59:50;100253.53;;;24.57
34023;BMP280;20673;48.980;8.138;2023-05-29T09:02:18;100252.12;;;24.83
34023;BMP280;20673;48.980;8.138;2023-05-29T09:04:44;100249.59;;;24.96
34023;BMP280;20673;48.980;8.138;2023-05-29T09:07:12;100245.96;;;24.61
34023;BMP280;20673;48.980;8.138;2023-05-29T09:09:38;100244.26;;;24.61
34023;BMP280;20673;48.980;8.138;2023-05-29T09:12:05;100247.23;;;25.02
34023;BMP280;20673;48.980;8.138;2023-05-29T09:14:36;100241.73;;;24.99
34023;BMP280;20673;48.980;8.138;2023-05-29T09:17:05;100251.14;;;25.05
34023;BMP280;20673;48.980;8.138;2023-05-29T09:19:33;100248.81;;;24.95
34023;BMP280;20673;48.980;8.138;2023-05-29T09:22:08;100251.00;;;25.36
34023;BMP280;20673;48.980;8.138;2023-05-29T09:24:37;100247.51;;;25.41
34023;BMP280;20673;48.980;8.138;2023-05-29T09:27:05;100258.42;;;25.53
34023;BMP280;20673;48.980;8.138;2023-05-29T09:29:45;100266.14;;;25.53
34023;BMP280;20673;48.980;8.138;2023-05-29T09:32:16;100260.29;;;25.70
34023;BMP280;20673;48.980;8.138;2023-05-29T09:34:44;100259.76;;;25.95
34023;BMP280;20673;48.980;8.138;2023-05-29T09:37:11;100261.54;;;25.86
34023;BMP280;20673;48.980;8.138;2023-05-29T09:39:50;100258.36;;;26.19
34023;BMP280;20673;48.980;8.138;2023-05-29T09:42:20;100263.36;;;26.25
34023;BMP280;20673;48.980;8.138;2023-05-29T09:44:51;100269.18;;;26.54
34023;BMP280;20673;48.980;8.138;2023-05-29T09:47:20;100265.28;;;26.19
34023;BMP280;20673;48.980;8.138;2023-05-29T09:49:47;100262.59;;;26.49
34023;BMP280;20673;48.980;8.138;2023-05-29T09:52:21;100270.58;;;26.53
34023;BMP280;20673;48.980;8.138;2023-05-29T09:54:48;100269.29;;;26.46
34023;BMP280;20673;48.980;8.138;2023-05-29T09:57:17;100266.48;;;26.50
34023;BMP280;20673;48.980;8.138;2023-05-29T09:59:45;100262.25;;;27.16
34023;BMP280;20673;48.980;8.138;2023-05-29T10:02:14;100263.26;;;27.25
34023;BMP280;20673;48.980;8.138;2023-05-29T10:04:41;100263.18;;;27.44
34023;BMP280;20673;48.980;8.138;2023-05-29T10:07:27;100259.79;;;27.75
34023;BMP280;20673;48.980;8.138;2023-05-29T10:10:04;100262.86;;;27.54
34023;BMP280;20673;48.980;8.138;2023-05-29T10:12:36;100250.08;;;27.98
34023;BMP280;20673;48.980;8.138;2023-05-29T10:15:13;100247.86;;;27.63
34023;BMP280;20673;48.980;8.138;2023-05-29T10:17:53;100246.10;;;27.82
34023;BMP280;20673;48.980;8.138;2023-05-29T10:20:20;100241.46;;;27.90
34023;BMP280;20673;48.980;8.138;2023-05-29T10:22:52;100244.38;;;27.95
34023;BMP280;20673;48.980;8.138;2023-05-29T10:25:20;100247.81;;;28.18
34023;BMP280;20673;48.980;8.138;2023-05-29T10:27:49;100245.98;;;28.41
34023;BMP280;20673;48.980;8.138;2023-05-29T10:30:34;100245.89;;;28.11
34023;BMP280;20673;48.980;8.138;2023-05-29T10:33:48;100245.58;;;28.52
34023;BMP280;20673;48.980;8.138;2023-05-29T10:36:18;100232.93;;;29.00
34023;BMP280;20673;48.980;8.138;2023-05-29T10:38:46;100235.99;;;29.26
34023;BMP280;20673;48.980;8.138;2023-05-29T10:41:29;100236.48;;;29.33
34023;BMP280;20673;48.980;8.138;2023-05-29T10:43:57;100243.75;;;29.46
34023;BMP280;20673;48.980;8.138;2023-05-29T10:49:18;100231.81;;;28.94
34023;BMP280;20673;48.980;8.138;2023-05-29T10:51:45;100234.76;;;29.09
34023;BMP280;20673;48.980;8.138;2023-05-29T10:54:12;100231.86;;;29.25
34023;BMP280;20673;48.980;8.138;2023-05-29T10:56:40;100235.28;;;29.85
34023;BMP280;20673;48.980;8.138;2023-05-29T10:59:08;100231.75;;;29.93
34023;BMP280;20673;48.980;8.138;2023-05-29T11:01:38;100228.84;;;29.01
34023;BMP280;20673;48.980;8.138;2023-05-29T11:06:51;100227.81;;;29.79
34023;BMP280;20673;48.980;8.138;2023-05-29T11:09:35;100227.08;;;29.91
34023;BMP280;20673;48.980;8.138;2023-05-29T11:12:23;100219.34;;;30.12
34023;BMP280;20673;48.980;8.138;2023-05-29T11:15:08;100223.95;;;29.80
34023;BMP280;20673;48.980;8.138;2023-05-29T11:17:44;100230.54;;;30.05
34023;BMP280;20673;48.980;8.138;2023-05-29T11:23:05;100230.04;;;30.01
34023;BMP280;20673;48.980;8.138;2023-05-29T11:25:35;100231.38;;;30.09
34023;BMP280;20673;48.980;8.138;2023-05-29T11:28:07;100229.11;;;30.26
34023;BMP280;20673;48.980;8.138;2023-05-29T11:30:47;100228.70;;;30.23
34023;BMP280;20673;48.980;8.138;2023-05-29T11:33:27;100228.48;;;30.31
34023;BMP280;20673;48.980;8.138;2023-05-29T11:36:00;100219.16;;;30.72
34023;BMP280;20673;48.980;8.138;2023-05-29T11:38:29;100220.54;;;30.78
34023;BMP280;20673;48.980;8.138;2023-05-29T11:40:56;100212.26;;;30.63
34023;BMP280;20673;48.980;8.138;2023-05-29T11:43:25;100225.31;;;30.94
34023;BMP280;20673;48.980;8.138;2023-05-29T11:45:52;100224.42;;;30.85
34023;BMP280;20673;48.980;8.138;2023-05-29T11:48:18;100221.22;;;30.90
34023;BMP280;20673;48.980;8.138;2023-05-29T11:50:44;100212.45;;;31.11
34023;BMP280;20673;48.980;8.138;2023-05-29T11:53:11;100202.68;;;30.31
34023;BMP280;20673;48.980;8.138;2023-05-29T11:55:37;100210.56;;;30.70
34023;BMP280;20673;48.980;8.138;2023-05-29T11:58:04;100203.39;;;31.09
34023;BMP280;20673;48.980;8.138;2023-05-29T12:00:36;100207.96;;;30.71
34023;BMP280;20673;48.980;8.138;2023-05-29T12:03:04;100206.86;;;30.82
34023;BMP280;20673;48.980;8.138;2023-05-29T12:05:44;100209.76;;;30.87
34023;BMP280;20673;48.980;8.138;2023-05-29T12:08:01;100207.56;;;31.13
34023;BMP280;20673;48.980;8.138;2023-05-29T12:10:30;100212.25;;;30.62
34023;BMP280;20673;48.980;8.138;2023-05-29T12:12:59;100201.54;;;31.16
34023;BMP280;20673;48.980;8.138;2023-05-29T12:15:29;100208.50;;;31.49
34023;BMP280;20673;48.980;8.138;2023-05-29T12:17:55;100209.09;;;30.99
34023;BMP280;20673;48.980;8.138;2023-05-29T12:20:24;100215.00;;;31.08
34023;BMP280;20673;48.980;8.138;2023-05-29T12:22:52;100201.95;;;31.57
34023;BMP280;20673;48.980;8.138;2023-05-29T12:25:20;100202.55;;;30.99
34023;BMP280;20673;48.980;8.138;2023-05-29T12:27:48;100205.90;;;31.33
34023;BMP280;20673;48.980;8.138;2023-05-29T12:32:50;100200.79;;;32.08
34023;BMP280;20673;48.980;8.138;2023-05-29T12:35:23;100208.39;;;31.67
34023;BMP280;20673;48.980;8.138;2023-05-29T12:38:04;100202.60;;;31.96
34023;BMP280;20673;48.980;8.138;2023-05-29T12:40:30;100200.12;;;32.07
34023;BMP280;20673;48.980;8.138;2023-05-29T12:42:59;100204.66;;;31.96
34023;BMP280;20673;48.980;8.138;2023-05-29T12:45:28;100202.17;;;31.79
34023;BMP280;20673;48.980;8.138;2023-05-29T12:47:58;100196.93;;;32.02
34023;BMP280;20673;48.980;8.138;2023-05-29T12:50:28;100199.18;;;32.18
34023;BMP280;20673;48.980;8.138;2023-05-29T12:53:09;100198.10;;;32.12
34023;BMP280;20673;48.980;8.138;2023-05-29T12:55:36;100188.47;;;32.47
34023;BMP280;20673;48.980;8.138;2023-05-29T12:58:07;100181.12;;;32.44
34023;BMP280;20673;48.980;8.138;2023-05-29T13:00:36;100187.03;;;32.24
34023;BMP280;20673;48.980;8.138;2023-05-29T13:03:03;100186.22;;;32.11
34023;BMP280;20673;48.980;8.138;2023-05-29T13:05:29;100185.83;;;32.38
34023;BMP280;20673;48.980;8.138;2023-05-29T13:07:55;100184.09;;;32.15
34023;BMP280;20673;48.980;8.138;2023-05-29T13:10:24;100189.92;;;31.78
34023;BMP280;20673;48.980;8.138;2023-05-29T13:12:53;100173.97;;;32.25
34023;BMP280;20673;48.980;8.138;2023-05-29T13:15:24;100174.05;;;32.27
34023;BMP280;20673;48.980;8.138;2023-05-29T13:17:52;100166.51;;;32.08
34023;BMP280;20673;48.980;8.138;2023-05-29T13:20:19;100172.05;;;31.32
34023;BMP280;20673;48.980;8.138;2023-05-29T13:22:47;100161.89;;;31.93
34023;BMP280;20673;48.980;8.138;2023-05-29T13:25:17;100158.33;;;32.31
34023;BMP280;20673;48.980;8.138;2023-05-29T13:27:47;100167.83;;;32.01
34023;BMP280;20673;48.980;8.138;2023-05-29T13:30:14;100167.89;;;31.72
34023;BMP280;20673;48.980;8.138;2023-05-29T13:32:44;100163.59;;;31.57
34023;BMP280;20673;48.980;8.138;2023-05-29T13:35:11;100162.35;;;31.77
34023;BMP280;20673;48.980;8.138;2023-05-29T13:37:38;100165.83;;;31.94
34023;BMP280;20673;48.980;8.138;2023-05-29T13:40:06;100161.43;;;32.30
34023;BMP280;20673;48.980;8.138;2023-05-29T13:42:35;100163.22;;;32.54
34023;BMP280;20673;48.980;8.138;2023-05-29T13:45:04;100165.17;;;32.26
34023;BMP280;20673;48.980;8.138;2023-05-29T13:47:33;100157.96;;;32.53
34023;BMP280;20673;48.980;8.138;2023-05-29T13:50:00;100157.08;;;32.23
34023;BMP280;20673;48.980;8.138;2023-05-29T13:52:27;100157.01;;;31.89
34023;BMP280;20673;48.980;8.138;2023-05-29T13:54:53;100151.64;;;32.08
34023;BMP280;20673;48.980;8.138;2023-05-29T13:57:20;100155.14;;;31.88
34023;BMP280;20673;48.980;8.138;2023-05-29T13:59:47;100155.43;;;32.00
34023;BMP280;20673;48.980;8.138;2023-05-29T14:02:15;100147.00;;;32.11
34023;BMP280;20673;48.980;8.138;2023-05-29T14:04:43;100147.73;;;31.97
34023;BMP280;20673;48.980;8.138;2023-05-29T14:07:09;100125.05;;;31.90
34023;BMP280;20673;48.980;8.138;2023-05-29T14:09:35;100139.34;;;31.73
34023;BMP280;20673;48.980;8.138;2023-05-29T14:12:01;100138.59;;;31.83
34023;BMP280;20673;48.980;8.138;2023-05-29T14:14:28;100131.80;;;32.06
34023;BMP280;20673;48.980;8.138;2023-05-29T14:16:54;100127.53;;;32.33